PWSweather.com
Personal Weather Stations
Station Observations
INORDPAS37
Bondues, BonduesFR 59910

BonduesBonduesFR 59910

Lat: 50.7, Lon: 3.09

Elevation: 102

Station Type: Netatmo

http://bondues.meteoamikuze.com

High Low Average
Temperature 57.2°F14.0°C 47.8°F8.8°C 51.7°F10.9°C
Dew Point 43.2°F6.2°C 35.8°F2.1°C 39.0°F3.9°C
Winds 6.9 mph 11.1 kmh 1.8 mph 2.9 kmh 3.0 mph S4.8 kmh S
Wind Gusts 11.2 mph18.0 kmh 3.1 mph5.0 kmh 8.0 mph12.9 kmh
Humidity 71% 63% 67%
Pressure 29.91 in1012.9 mb 29.74 in1007.1 mb -
Precipitation 0.04 in1.0 mm - -
Hour Temp Dew Point Humidity Winds Wind Gusts Pressure Precip Precip Rate Daily Precip Total
12:08 AM 49.1°F9.5°C 38.1°F3.4°C 71% 2.5 mph SE4.0 kmh SE 7.4 mph11.9 kmh 29.79 in1008.8 mb 0.00 in0.0 mm 0.00 in0.0 mm 0.00 in0.0 mm
12:28 AM 49.5°F9.7°C 38.5°F3.6°C 71% 1.8 mph SSE2.9 kmh SSE 4.9 mph7.9 kmh 29.79 in1008.8 mb 0.00 in0.0 mm 0.00 in0.0 mm 0.00 in0.0 mm
12:49 AM 49.6°F9.8°C 38.7°F3.7°C 71% 3.1 mph SSE5.0 kmh SSE 7.4 mph11.9 kmh 29.79 in1008.8 mb 0.00 in0.0 mm 0.00 in0.0 mm 0.00 in0.0 mm
01:08 AM 49.8°F9.9°C 38.5°F3.6°C 70% 2.5 mph SE4.0 kmh SE 4.9 mph7.9 kmh 29.78 in1008.5 mb 0.00 in0.0 mm 0.00 in0.0 mm 0.00 in0.0 mm
01:29 AM 49.8°F9.9°C 38.5°F3.6°C 70% 1.8 mph SSE2.9 kmh SSE 8.1 mph13.0 kmh 29.78 in1008.5 mb 0.00 in0.0 mm 0.00 in0.0 mm 0.00 in0.0 mm
01:45 AM 50.0°F10.0°C 38.7°F3.7°C 70% 1.8 mph SSE2.9 kmh SSE 3.1 mph5.0 kmh 29.78 in1008.5 mb 0.00 in0.0 mm 0.00 in0.0 mm 0.00 in0.0 mm
02:05 AM 50.2°F10.1°C 38.3°F3.5°C 69% 2.5 mph SE4.0 kmh SE 4.9 mph7.9 kmh 29.77 in1008.1 mb 0.00 in0.0 mm 0.00 in0.0 mm 0.00 in0.0 mm
02:28 AM 50.4°F10.2°C 38.5°F3.6°C 69% 2.5 mph SE4.0 kmh SE 4.3 mph6.9 kmh 29.77 in1008.1 mb 0.00 in0.0 mm 0.00 in0.0 mm 0.00 in0.0 mm
02:49 AM 50.4°F10.2°C 38.1°F3.4°C 68% 2.5 mph SSE4.0 kmh SSE 5.6 mph9.0 kmh 29.76 in1007.8 mb 0.00 in0.0 mm 0.00 in0.0 mm 0.00 in0.0 mm
02:59 AM 50.4°F10.2°C 38.1°F3.4°C 68% 1.8 mph SE2.9 kmh SE 4.9 mph7.9 kmh 29.76 in1007.8 mb 0.00 in0.0 mm 0.00 in0.0 mm 0.00 in0.0 mm
03:20 AM 50.0°F10.0°C 37.8°F3.2°C 68% 3.1 mph SSE5.0 kmh SSE 7.4 mph11.9 kmh 29.76 in1007.8 mb 0.00 in0.0 mm 0.00 in0.0 mm 0.00 in0.0 mm
03:39 AM 49.8°F9.9°C 37.6°F3.1°C 68% 2.5 mph SSE4.0 kmh SSE 4.9 mph7.9 kmh 29.75 in1007.5 mb 0.00 in0.0 mm 0.00 in0.0 mm 0.00 in0.0 mm
04:00 AM 49.6°F9.8°C 37.0°F2.8°C 67% 2.5 mph SSE4.0 kmh SSE 6.9 mph11.1 kmh 29.74 in1007.1 mb 0.00 in0.0 mm 0.00 in0.0 mm 0.00 in0.0 mm
04:20 AM 49.5°F9.7°C 36.9°F2.7°C 67% 3.1 mph SSE5.0 kmh SSE 6.9 mph11.1 kmh 29.74 in1007.1 mb 0.00 in0.0 mm 0.00 in0.0 mm 0.00 in0.0 mm
04:40 AM 49.5°F9.7°C 36.9°F2.7°C 67% 2.5 mph S4.0 kmh S 5.6 mph9.0 kmh 29.74 in1007.1 mb 0.00 in0.0 mm 0.00 in0.0 mm 0.00 in0.0 mm
05:01 AM 49.3°F9.6°C 36.7°F2.6°C 67% 3.8 mph SSE6.1 kmh SSE 8.1 mph13.0 kmh 29.74 in1007.1 mb 0.00 in0.0 mm 0.00 in0.0 mm 0.00 in0.0 mm
05:20 AM 49.1°F9.5°C 36.5°F2.5°C 67% 3.8 mph SSE6.1 kmh SSE 8.7 mph14.0 kmh 29.74 in1007.1 mb 0.00 in0.0 mm 0.00 in0.0 mm 0.00 in0.0 mm
05:41 AM 48.9°F9.4°C 36.3°F2.4°C 67% 3.1 mph SSE5.0 kmh SSE 6.9 mph11.1 kmh 29.74 in1007.1 mb 0.00 in0.0 mm 0.00 in0.0 mm 0.00 in0.0 mm
06:01 AM 48.4°F9.1°C 35.8°F2.1°C 67% 3.1 mph SSE5.0 kmh SSE 6.9 mph11.1 kmh 29.74 in1007.1 mb 0.00 in0.0 mm 0.00 in0.0 mm 0.00 in0.0 mm
06:21 AM 48.2°F9.0°C 35.8°F2.1°C 67% 3.8 mph SSE6.1 kmh SSE 8.1 mph13.0 kmh 29.75 in1007.5 mb 0.00 in0.0 mm 0.00 in0.0 mm 0.00 in0.0 mm
06:41 AM 48.2°F9.0°C 35.8°F2.1°C 67% 3.8 mph SSE6.1 kmh SSE 8.1 mph13.0 kmh 29.75 in1007.5 mb 0.00 in0.0 mm 0.00 in0.0 mm 0.00 in0.0 mm
07:01 AM 48.2°F9.0°C 35.8°F2.1°C 67% 4.3 mph SSE6.9 kmh SSE 10.5 mph16.9 kmh 29.75 in1007.5 mb 0.00 in0.0 mm 0.00 in0.0 mm 0.00 in0.0 mm
07:22 AM 48.2°F9.0°C 35.8°F2.1°C 67% 3.8 mph SSE6.1 kmh SSE 8.7 mph14.0 kmh 29.75 in1007.5 mb 0.00 in0.0 mm 0.00 in0.0 mm 0.00 in0.0 mm
07:42 AM 48.2°F9.0°C 35.8°F2.1°C 67% 4.3 mph SSE6.9 kmh SSE 9.4 mph15.1 kmh 29.76 in1007.8 mb 0.00 in0.0 mm 0.00 in0.0 mm 0.00 in0.0 mm
08:02 AM 48.2°F9.0°C 35.8°F2.1°C 67% 4.3 mph SSE6.9 kmh SSE 8.1 mph13.0 kmh 29.76 in1007.8 mb 0.00 in0.0 mm 0.00 in0.0 mm 0.00 in0.0 mm
08:22 AM 48.4°F9.1°C 35.8°F2.1°C 67% 4.3 mph SSE6.9 kmh SSE 9.8 mph15.8 kmh 29.77 in1008.1 mb 0.00 in0.0 mm 0.00 in0.0 mm 0.00 in0.0 mm
08:42 AM 48.7°F9.3°C 36.1°F2.3°C 67% 3.8 mph SSE6.1 kmh SSE 8.1 mph13.0 kmh 29.77 in1008.1 mb 0.00 in0.0 mm 0.00 in0.0 mm 0.00 in0.0 mm
09:02 AM 49.3°F9.6°C 36.7°F2.6°C 67% 4.3 mph SSE6.9 kmh SSE 9.4 mph15.1 kmh 29.77 in1008.1 mb 0.00 in0.0 mm 0.00 in0.0 mm 0.00 in0.0 mm
09:22 AM 49.6°F9.8°C 37.0°F2.8°C 67% 3.8 mph SSE6.1 kmh SSE 8.7 mph14.0 kmh 29.77 in1008.1 mb 0.00 in0.0 mm 0.00 in0.0 mm 0.00 in0.0 mm
09:42 AM 50.2°F10.1°C 37.2°F2.9°C 66% 3.8 mph SSE6.1 kmh SSE 8.1 mph13.0 kmh 29.77 in1008.1 mb 0.00 in0.0 mm 0.00 in0.0 mm 0.00 in0.0 mm
10:02 AM 52.0°F11.1°C 38.8°F3.8°C 66% 3.1 mph SSE5.0 kmh SSE 6.9 mph11.1 kmh 29.76 in1007.8 mb 0.00 in0.0 mm 0.00 in0.0 mm 0.00 in0.0 mm
10:23 AM 53.6°F12.0°C 40.5°F4.7°C 66% 3.8 mph S6.1 kmh S 9.4 mph15.1 kmh 29.76 in1007.8 mb 0.00 in0.0 mm 0.00 in0.0 mm 0.00 in0.0 mm
10:42 AM 54.9°F12.7°C 41.2°F5.1°C 65% 4.3 mph S6.9 kmh S 9.8 mph15.8 kmh 29.76 in1007.8 mb 0.00 in0.0 mm 0.00 in0.0 mm 0.00 in0.0 mm
11:03 AM 56.1°F13.4°C 42.4°F5.8°C 65% 4.3 mph S6.9 kmh S 9.4 mph15.1 kmh 29.76 in1007.8 mb 0.00 in0.0 mm 0.00 in0.0 mm 0.00 in0.0 mm
11:22 AM 56.7°F13.7°C 43.0°F6.1°C 65% 4.9 mph S7.9 kmh S 11.2 mph18.0 kmh 29.76 in1007.8 mb 0.00 in0.0 mm 0.00 in0.0 mm 0.00 in0.0 mm
11:43 AM 56.8°F13.8°C 42.3°F5.7°C 63% 5.6 mph S9.0 kmh S 11.2 mph18.0 kmh 29.76 in1007.8 mb 0.00 in0.0 mm 0.00 in0.0 mm 0.00 in0.0 mm
12:03 PM 56.8°F13.8°C 42.8°F6.0°C 64% 3.8 mph S6.1 kmh S 9.4 mph15.1 kmh 29.75 in1007.5 mb 0.00 in0.0 mm 0.00 in0.0 mm 0.00 in0.0 mm
12:23 PM 57.2°F14.0°C 43.2°F6.2°C 64% 4.3 mph S6.9 kmh S 8.7 mph14.0 kmh 29.75 in1007.5 mb 0.00 in0.0 mm 0.00 in0.0 mm 0.00 in0.0 mm
12:43 PM 56.7°F13.7°C 42.1°F5.6°C 63% 3.1 mph S5.0 kmh S 8.7 mph14.0 kmh 29.75 in1007.5 mb 0.00 in0.0 mm 0.00 in0.0 mm 0.00 in0.0 mm
01:03 PM 56.5°F13.6°C 42.1°F5.6°C 63% 3.8 mph S6.1 kmh S 8.7 mph14.0 kmh 29.74 in1007.1 mb 0.00 in0.0 mm 0.00 in0.0 mm 0.00 in0.0 mm
01:23 PM 56.1°F13.4°C 41.7°F5.4°C 63% 3.8 mph S6.1 kmh S 7.4 mph11.9 kmh 29.74 in1007.1 mb 0.00 in0.0 mm 0.00 in0.0 mm 0.00 in0.0 mm
01:43 PM 56.1°F13.4°C 41.7°F5.4°C 63% 3.1 mph S5.0 kmh S 8.7 mph14.0 kmh 29.74 in1007.1 mb 0.00 in0.0 mm 0.00 in0.0 mm 0.00 in0.0 mm
02:03 PM 55.9°F13.3°C 41.5°F5.3°C 63% 3.8 mph SSW6.1 kmh SSW 9.8 mph15.8 kmh 29.74 in1007.1 mb 0.00 in0.0 mm 0.00 in0.0 mm 0.00 in0.0 mm
02:23 PM 55.9°F13.3°C 41.5°F5.3°C 63% 3.1 mph S5.0 kmh S 6.9 mph11.1 kmh 29.74 in1007.1 mb 0.00 in0.0 mm 0.00 in0.0 mm 0.00 in0.0 mm
02:43 PM 55.8°F13.2°C 41.7°F5.4°C 64% 3.1 mph SSW5.0 kmh SSW 9.4 mph15.1 kmh 29.74 in1007.1 mb 0.00 in0.0 mm 0.00 in0.0 mm 0.00 in0.0 mm
03:03 PM 55.4°F13.0°C 41.4°F5.2°C 64% 2.5 mph S4.0 kmh S 6.9 mph11.1 kmh 29.74 in1007.1 mb 0.00 in0.0 mm 0.00 in0.0 mm 0.00 in0.0 mm
03:23 PM 55.2°F12.9°C 41.2°F5.1°C 64% 3.8 mph S6.1 kmh S 7.4 mph11.9 kmh 29.74 in1007.1 mb 0.00 in0.0 mm 0.00 in0.0 mm 0.00 in0.0 mm
03:43 PM 54.9°F12.7°C 40.8°F4.9°C 64% 2.5 mph SSW4.0 kmh SSW 7.4 mph11.9 kmh 29.75 in1007.5 mb 0.00 in0.0 mm 0.00 in0.0 mm 0.00 in0.0 mm
04:04 PM 54.7°F12.6°C 40.6°F4.8°C 64% 2.5 mph S4.0 kmh S 5.6 mph9.0 kmh 29.75 in1007.5 mb 0.00 in0.0 mm 0.00 in0.0 mm 0.00 in0.0 mm
04:23 PM 54.5°F12.5°C 41.0°F5.0°C 65% 3.1 mph SSW5.0 kmh SSW 6.9 mph11.1 kmh 29.75 in1007.5 mb 0.00 in0.0 mm 0.00 in0.0 mm 0.00 in0.0 mm
04:44 PM 54.3°F12.4°C 40.8°F4.9°C 65% 3.1 mph S5.0 kmh S 7.4 mph11.9 kmh 29.75 in1007.5 mb 0.00 in0.0 mm 0.00 in0.0 mm 0.00 in0.0 mm
05:01 PM 54.0°F12.2°C 40.5°F4.7°C 65% 2.5 mph SW4.0 kmh SW 6.9 mph11.1 kmh 29.75 in1007.5 mb 0.00 in0.0 mm 0.00 in0.0 mm 0.00 in0.0 mm
05:21 PM 53.8°F12.1°C 40.3°F4.6°C 65% 2.5 mph SSW4.0 kmh SSW 5.6 mph9.0 kmh 29.76 in1007.8 mb 0.00 in0.0 mm 0.00 in0.0 mm 0.00 in0.0 mm
05:41 PM 53.2°F11.8°C 39.7°F4.3°C 65% 2.5 mph SW4.0 kmh SW 4.9 mph7.9 kmh 29.77 in1008.1 mb 0.00 in0.0 mm 0.01 in0.3 mm 0.00 in0.0 mm
06:01 PM 52.3°F11.3°C 39.2°F4.0°C 66% 3.1 mph SSW5.0 kmh SSW 5.6 mph9.0 kmh 29.77 in1008.1 mb 0.00 in0.0 mm 0.00 in0.0 mm 0.00 in0.0 mm
06:21 PM 51.8°F11.0°C 38.7°F3.7°C 66% 3.1 mph SW5.0 kmh SW 5.6 mph9.0 kmh 29.78 in1008.5 mb 0.00 in0.0 mm 0.00 in0.0 mm 0.00 in0.0 mm
06:41 PM 51.4°F10.8°C 38.8°F3.8°C 67% 3.8 mph SW6.1 kmh SW 9.4 mph15.1 kmh 29.78 in1008.5 mb 0.00 in0.0 mm 0.00 in0.0 mm 0.00 in0.0 mm
07:01 PM 51.3°F10.7°C 39.0°F3.9°C 68% 3.1 mph SSW5.0 kmh SSW 7.4 mph11.9 kmh 29.79 in1008.8 mb 0.00 in0.0 mm 0.00 in0.0 mm 0.00 in0.0 mm
07:27 PM 51.1°F10.6°C 38.8°F3.8°C 68% 3.1 mph SSW5.0 kmh SSW 10.5 mph16.9 kmh 29.79 in1008.8 mb 0.00 in0.0 mm 0.00 in0.0 mm 0.00 in0.0 mm
07:47 PM 51.1°F10.6°C 38.8°F3.8°C 68% 3.1 mph SSW5.0 kmh SSW 7.4 mph11.9 kmh 29.79 in1008.8 mb 0.00 in0.0 mm 0.00 in0.0 mm 0.00 in0.0 mm
08:07 PM 51.1°F10.6°C 39.2°F4.0°C 69% 3.1 mph SW5.0 kmh SW 7.4 mph11.9 kmh 29.80 in1009.1 mb 0.00 in0.0 mm 0.00 in0.0 mm 0.00 in0.0 mm
08:27 PM 51.1°F10.6°C 39.2°F4.0°C 69% 3.1 mph SSW5.0 kmh SSW 5.6 mph9.0 kmh 29.80 in1009.1 mb 0.00 in0.0 mm 0.00 in0.0 mm 0.00 in0.0 mm
08:47 PM 51.1°F10.6°C 39.2°F4.0°C 69% 3.1 mph SW5.0 kmh SW 7.4 mph11.9 kmh 29.81 in1009.5 mb 0.00 in0.0 mm 0.00 in0.0 mm 0.00 in0.0 mm
09:07 PM 51.1°F10.6°C 39.2°F4.0°C 69% 3.8 mph SW6.1 kmh SW 9.4 mph15.1 kmh 29.83 in1010.2 mb 0.00 in0.0 mm 0.00 in0.0 mm 0.00 in0.0 mm
09:27 PM 51.1°F10.6°C 39.2°F4.0°C 69% 3.1 mph SW5.0 kmh SW 8.1 mph13.0 kmh 29.84 in1010.5 mb 0.00 in0.0 mm 0.00 in0.0 mm 0.00 in0.0 mm
09:47 PM 50.9°F10.5°C 39.0°F3.9°C 69% 2.5 mph WSW4.0 kmh WSW 4.9 mph7.9 kmh 29.85 in1010.8 mb 0.00 in0.0 mm 0.00 in0.0 mm 0.00 in0.0 mm
10:08 PM 50.7°F10.4°C 39.2°F4.0°C 70% 2.5 mph WSW4.0 kmh WSW 8.7 mph14.0 kmh 29.86 in1011.2 mb 0.00 in0.0 mm 0.01 in0.3 mm 0.01 in0.3 mm
10:23 PM 50.5°F10.3°C 39.6°F4.2°C 71% 3.1 mph W5.0 kmh W 8.1 mph13.0 kmh 29.87 in1011.5 mb 0.01 in0.3 mm 0.03 in0.8 mm 0.02 in0.5 mm
10:43 PM 49.6°F9.8°C 38.7°F3.7°C 71% 6.9 mph WNW11.1 kmh WNW 10.5 mph16.9 kmh 29.88 in1011.9 mb 0.04 in1.0 mm 0.07 in1.8 mm 0.04 in1.0 mm
11:03 PM 48.7°F9.3°C 37.8°F3.2°C 71% 3.1 mph WNW5.0 kmh WNW 7.4 mph11.9 kmh 29.89 in1012.2 mb 0.04 in1.0 mm 0.00 in0.0 mm 0.04 in1.0 mm
11:23 PM 48.2°F9.0°C 37.2°F2.9°C 71% 4.9 mph WNW7.9 kmh WNW 9.4 mph15.1 kmh 29.91 in1012.9 mb 0.03 in0.8 mm 0.00 in0.0 mm 0.04 in1.0 mm
11:42 PM 47.8°F8.8°C 36.9°F2.7°C 71% 3.1 mph W5.0 kmh W 6.9 mph11.1 kmh 29.91 in1012.9 mb 0.00 in0.0 mm 0.00 in0.0 mm 0.04 in1.0 mm